sensor_id;sensor_type;location;lat;lon;timestamp;P1;durP1;ratioP1;P2;durP2;ratioP2
3523;SDS011;1776;53.330;11.498;2023-05-24T00:00:32;21.50;;;4.77;;
3523;SDS011;1776;53.330;11.498;2023-05-24T00:02:57;13.63;;;4.03;;
3523;SDS011;1776;53.330;11.498;2023-05-24T00:05:23;19.43;;;4.00;;
3523;SDS011;1776;53.330;11.498;2023-05-24T00:07:48;13.23;;;4.67;;
3523;SDS011;1776;53.330;11.498;2023-05-24T00:10:14;8.53;;;3.57;;
3523;SDS011;1776;53.330;11.498;2023-05-24T00:12:40;10.70;;;4.30;;
3523;SDS011;1776;53.330;11.498;2023-05-24T00:15:05;14.03;;;3.67;;
3523;SDS011;1776;53.330;11.498;2023-05-24T00:17:31;16.53;;;4.30;;
3523;SDS011;1776;53.330;11.498;2023-05-24T00:19:58;18.93;;;3.90;;
3523;SDS011;1776;53.330;11.498;2023-05-24T00:22:24;14.77;;;4.90;;
3523;SDS011;1776;53.330;11.498;2023-05-24T00:24:49;24.47;;;4.73;;
3523;SDS011;1776;53.330;11.498;2023-05-24T00:27:14;10.47;;;3.80;;
3523;SDS011;1776;53.330;11.498;2023-05-24T00:29:39;13.00;;;3.87;;
3523;SDS011;1776;53.330;11.498;2023-05-24T00:32:05;11.40;;;3.90;;
3523;SDS011;1776;53.330;11.498;2023-05-24T00:34:30;16.43;;;4.77;;
3523;SDS011;1776;53.330;11.498;2023-05-24T00:36:56;14.00;;;4.60;;
3523;SDS011;1776;53.330;11.498;2023-05-24T00:39:21;17.37;;;4.17;;
3523;SDS011;1776;53.330;11.498;2023-05-24T00:41:47;20.40;;;4.87;;
3523;SDS011;1776;53.330;11.498;2023-05-24T00:44:12;11.90;;;4.00;;
3523;SDS011;1776;53.330;11.498;2023-05-24T00:46:37;17.60;;;5.33;;
3523;SDS011;1776;53.330;11.498;2023-05-24T00:49:03;20.33;;;5.30;;
3523;SDS011;1776;53.330;11.498;2023-05-24T00:51:28;18.27;;;5.30;;
3523;SDS011;1776;53.330;11.498;2023-05-24T00:53:56;21.83;;;5.30;;
3523;SDS011;1776;53.330;11.498;2023-05-24T00:56:22;18.33;;;6.03;;
3523;SDS011;1776;53.330;11.498;2023-05-24T00:58:47;12.70;;;5.07;;
3523;SDS011;1776;53.330;11.498;2023-05-24T01:01:14;29.60;;;7.23;;
3523;SDS011;1776;53.330;11.498;2023-05-24T01:03:40;23.27;;;4.97;;
3523;SDS011;1776;53.330;11.498;2023-05-24T01:06:05;16.20;;;4.83;;
3523;SDS011;1776;53.330;11.498;2023-05-24T01:11:03;16.57;;;6.20;;
3523;SDS011;1776;53.330;11.498;2023-05-24T01:16:10;18.03;;;5.50;;
3523;SDS011;1776;53.330;11.498;2023-05-24T01:18:46;10.87;;;4.40;;
3523;SDS011;1776;53.330;11.498;2023-05-24T01:29:38;27.40;;;7.07;;
3523;SDS011;1776;53.330;11.498;2023-05-24T01:32:04;23.70;;;5.80;;
3523;SDS011;1776;53.330;11.498;2023-05-24T01:34:30;21.70;;;5.80;;
3523;SDS011;1776;53.330;11.498;2023-05-24T01:36:56;22.40;;;7.10;;
3523;SDS011;1776;53.330;11.498;2023-05-24T01:39:21;24.77;;;6.03;;
3523;SDS011;1776;53.330;11.498;2023-05-24T01:41:58;27.90;;;5.43;;
3523;SDS011;1776;53.330;11.498;2023-05-24T01:44:46;22.80;;;5.90;;
3523;SDS011;1776;53.330;11.498;2023-05-24T01:49:56;21.13;;;5.63;;
3523;SDS011;1776;53.330;11.498;2023-05-24T01:52:27;22.57;;;5.40;;
3523;SDS011;1776;53.330;11.498;2023-05-24T01:54:57;18.17;;;6.00;;
3523;SDS011;1776;53.330;11.498;2023-05-24T01:57:24;31.37;;;6.23;;
3523;SDS011;1776;53.330;11.498;2023-05-24T01:59:51;20.53;;;6.90;;
3523;SDS011;1776;53.330;11.498;2023-05-24T02:02:18;24.30;;;6.23;;
3523;SDS011;1776;53.330;11.498;2023-05-24T02:04:43;16.20;;;5.80;;
3523;SDS011;1776;53.330;11.498;2023-05-24T02:07:08;29.47;;;5.60;;
3523;SDS011;1776;53.330;11.498;2023-05-24T02:09:34;18.30;;;5.47;;
3523;SDS011;1776;53.330;11.498;2023-05-24T02:11:59;31.50;;;7.10;;
3523;SDS011;1776;53.330;11.498;2023-05-24T02:14:26;34.07;;;6.20;;
3523;SDS011;1776;53.330;11.498;2023-05-24T02:16:51;25.43;;;5.87;;
3523;SDS011;1776;53.330;11.498;2023-05-24T02:19:16;21.53;;;5.33;;
3523;SDS011;1776;53.330;11.498;2023-05-24T02:21:42;22.60;;;6.90;;
3523;SDS011;1776;53.330;11.498;2023-05-24T02:24:07;22.20;;;6.67;;
3523;SDS011;1776;53.330;11.498;2023-05-24T02:26:35;23.80;;;5.27;;
3523;SDS011;1776;53.330;11.498;2023-05-24T02:29:01;24.97;;;6.93;;
3523;SDS011;1776;53.330;11.498;2023-05-24T02:31:26;18.53;;;5.53;;
3523;SDS011;1776;53.330;11.498;2023-05-24T02:33:53;20.10;;;5.83;;
3523;SDS011;1776;53.330;11.498;2023-05-24T02:36:22;23.60;;;5.50;;
3523;SDS011;1776;53.330;11.498;2023-05-24T02:38:48;23.70;;;6.80;;
3523;SDS011;1776;53.330;11.498;2023-05-24T02:41:14;27.73;;;5.50;;
3523;SDS011;1776;53.330;11.498;2023-05-24T02:43:42;19.47;;;5.33;;
3523;SDS011;1776;53.330;11.498;2023-05-24T02:46:08;26.20;;;7.87;;
3523;SDS011;1776;53.330;11.498;2023-05-24T02:48:33;21.43;;;6.87;;
3523;SDS011;1776;53.330;11.498;2023-05-24T02:50:58;22.83;;;5.80;;
3523;SDS011;1776;53.330;11.498;2023-05-24T02:53:27;17.33;;;5.13;;
3523;SDS011;1776;53.330;11.498;2023-05-24T02:55:52;14.73;;;5.83;;
3523;SDS011;1776;53.330;11.498;2023-05-24T02:58:17;27.43;;;7.50;;
3523;SDS011;1776;53.330;11.498;2023-05-24T03:00:42;21.73;;;5.27;;
3523;SDS011;1776;53.330;11.498;2023-05-24T03:03:08;25.37;;;6.40;;
3523;SDS011;1776;53.330;11.498;2023-05-24T03:05:33;28.40;;;6.60;;
3523;SDS011;1776;53.330;11.498;2023-05-24T03:07:58;23.73;;;8.30;;
3523;SDS011;1776;53.330;11.498;2023-05-24T03:10:23;22.80;;;6.20;;
3523;SDS011;1776;53.330;11.498;2023-05-24T03:12:49;29.17;;;6.27;;
3523;SDS011;1776;53.330;11.498;2023-05-24T03:15:14;19.60;;;5.80;;
3523;SDS011;1776;53.330;11.498;2023-05-24T03:17:39;22.07;;;5.43;;
3523;SDS011;1776;53.330;11.498;2023-05-24T03:20:05;27.80;;;6.50;;
3523;SDS011;1776;53.330;11.498;2023-05-24T03:22:31;22.50;;;6.90;;
3523;SDS011;1776;53.330;11.498;2023-05-24T03:24:56;16.77;;;6.47;;
3523;SDS011;1776;53.330;11.498;2023-05-24T03:27:22;25.20;;;6.97;;
3523;SDS011;1776;53.330;11.498;2023-05-24T03:29:47;17.27;;;5.47;;
3523;SDS011;1776;53.330;11.498;2023-05-24T03:32:12;37.37;;;6.60;;
3523;SDS011;1776;53.330;11.498;2023-05-24T03:34:37;22.40;;;6.50;;
3523;SDS011;1776;53.330;11.498;2023-05-24T03:37:03;36.03;;;7.43;;
3523;SDS011;1776;53.330;11.498;2023-05-24T03:39:28;18.37;;;5.57;;
3523;SDS011;1776;53.330;11.498;2023-05-24T03:41:53;29.80;;;8.63;;
3523;SDS011;1776;53.330;11.498;2023-05-24T03:44:19;20.97;;;5.30;;
3523;SDS011;1776;53.330;11.498;2023-05-24T03:46:45;17.93;;;6.10;;
3523;SDS011;1776;53.330;11.498;2023-05-24T03:49:10;25.23;;;6.60;;
3523;SDS011;1776;53.330;11.498;2023-05-24T03:51:36;18.73;;;5.83;;
3523;SDS011;1776;53.330;11.498;2023-05-24T03:54:01;18.53;;;5.93;;
3523;SDS011;1776;53.330;11.498;2023-05-24T03:56:26;16.93;;;5.77;;
3523;SDS011;1776;53.330;11.498;2023-05-24T03:58:52;20.73;;;5.43;;
3523;SDS011;1776;53.330;11.498;2023-05-24T04:01:17;23.07;;;5.80;;
3523;SDS011;1776;53.330;11.498;2023-05-24T04:03:44;24.50;;;5.30;;
3523;SDS011;1776;53.330;11.498;2023-05-24T04:06:10;24.77;;;6.93;;
3523;SDS011;1776;53.330;11.498;2023-05-24T04:08:36;19.67;;;6.80;;
3523;SDS011;1776;53.330;11.498;2023-05-24T04:11:01;20.73;;;6.20;;
3523;SDS011;1776;53.330;11.498;2023-05-24T04:13:27;22.90;;;6.80;;
3523;SDS011;1776;53.330;11.498;2023-05-24T04:15:52;27.00;;;7.00;;
3523;SDS011;1776;53.330;11.498;2023-05-24T04:18:17;18.47;;;6.00;;
3523;SDS011;1776;53.330;11.498;2023-05-24T04:20:42;26.17;;;6.80;;
3523;SDS011;1776;53.330;11.498;2023-05-24T04:23:08;14.80;;;5.47;;
3523;SDS011;1776;53.330;11.498;2023-05-24T04:25:33;21.30;;;7.23;;
3523;SDS011;1776;53.330;11.498;2023-05-24T04:27:59;37.50;;;7.60;;
3523;SDS011;1776;53.330;11.498;2023-05-24T04:30:26;27.60;;;6.47;;
3523;SDS011;1776;53.330;11.498;2023-05-24T04:32:54;28.33;;;8.57;;
3523;SDS011;1776;53.330;11.498;2023-05-24T04:35:20;24.00;;;5.73;;
3523;SDS011;1776;53.330;11.498;2023-05-24T04:37:45;18.20;;;6.27;;
3523;SDS011;1776;53.330;11.498;2023-05-24T04:40:12;17.10;;;5.80;;
3523;SDS011;1776;53.330;11.498;2023-05-24T04:42:37;16.47;;;5.80;;
3523;SDS011;1776;53.330;11.498;2023-05-24T04:45:03;23.83;;;6.80;;
3523;SDS011;1776;53.330;11.498;2023-05-24T04:47:28;24.00;;;6.77;;
3523;SDS011;1776;53.330;11.498;2023-05-24T04:49:54;20.23;;;5.83;;
3523;SDS011;1776;53.330;11.498;2023-05-24T04:52:19;22.73;;;6.00;;
3523;SDS011;1776;53.330;11.498;2023-05-24T04:54:44;23.60;;;6.30;;
3523;SDS011;1776;53.330;11.498;2023-05-24T04:57:10;32.17;;;7.63;;
3523;SDS011;1776;53.330;11.498;2023-05-24T04:59:35;25.70;;;6.47;;
3523;SDS011;1776;53.330;11.498;2023-05-24T05:02:00;15.90;;;6.03;;
3523;SDS011;1776;53.330;11.498;2023-05-24T05:04:26;23.53;;;6.50;;
3523;SDS011;1776;53.330;11.498;2023-05-24T05:06:51;21.77;;;5.97;;
3523;SDS011;1776;53.330;11.498;2023-05-24T05:09:16;21.73;;;7.10;;
3523;SDS011;1776;53.330;11.498;2023-05-24T05:11:42;23.47;;;6.43;;
3523;SDS011;1776;53.330;11.498;2023-05-24T05:14:09;15.60;;;6.07;;
3523;SDS011;1776;53.330;11.498;2023-05-24T05:16:35;24.70;;;5.50;;
3523;SDS011;1776;53.330;11.498;2023-05-24T05:19:01;24.07;;;7.40;;
3523;SDS011;1776;53.330;11.498;2023-05-24T05:21:28;30.90;;;7.43;;
3523;SDS011;1776;53.330;11.498;2023-05-24T05:23:57;17.20;;;6.40;;
3523;SDS011;1776;53.330;11.498;2023-05-24T05:26:22;25.77;;;6.30;;
3523;SDS011;1776;53.330;11.498;2023-05-24T05:28:47;19.23;;;5.77;;
3523;SDS011;1776;53.330;11.498;2023-05-24T05:31:13;25.23;;;7.97;;
3523;SDS011;1776;53.330;11.498;2023-05-24T05:33:38;22.87;;;6.07;;
3523;SDS011;1776;53.330;11.498;2023-05-24T05:36:03;25.40;;;5.83;;
3523;SDS011;1776;53.330;11.498;2023-05-24T05:38:28;18.80;;;6.17;;
3523;SDS011;1776;53.330;11.498;2023-05-24T05:40:54;20.37;;;6.73;;
3523;SDS011;1776;53.330;11.498;2023-05-24T05:43:19;20.67;;;6.60;;
3523;SDS011;1776;53.330;11.498;2023-05-24T05:45:44;23.83;;;6.20;;
3523;SDS011;1776;53.330;11.498;2023-05-24T05:48:10;21.80;;;5.93;;
3523;SDS011;1776;53.330;11.498;2023-05-24T05:50:35;20.50;;;7.20;;
3523;SDS011;1776;53.330;11.498;2023-05-24T05:53:00;24.53;;;6.27;;
3523;SDS011;1776;53.330;11.498;2023-05-24T05:55:25;22.13;;;6.17;;
3523;SDS011;1776;53.330;11.498;2023-05-24T05:57:51;20.40;;;7.10;;
3523;SDS011;1776;53.330;11.498;2023-05-24T06:00:16;25.77;;;7.23;;
3523;SDS011;1776;53.330;11.498;2023-05-24T06:02:42;25.73;;;7.50;;
3523;SDS011;1776;53.330;11.498;2023-05-24T06:05:07;21.90;;;6.80;;
3523;SDS011;1776;53.330;11.498;2023-05-24T06:07:33;22.93;;;7.00;;
3523;SDS011;1776;53.330;11.498;2023-05-24T06:09:59;25.83;;;6.17;;
3523;SDS011;1776;53.330;11.498;2023-05-24T06:12:24;24.40;;;7.03;;
3523;SDS011;1776;53.330;11.498;2023-05-24T06:14:50;21.20;;;6.73;;
3523;SDS011;1776;53.330;11.498;2023-05-24T06:17:16;32.17;;;7.63;;
3523;SDS011;1776;53.330;11.498;2023-05-24T06:19:42;33.10;;;8.07;;
3523;SDS011;1776;53.330;11.498;2023-05-24T06:22:07;27.03;;;6.83;;
3523;SDS011;1776;53.330;11.498;2023-05-24T06:24:33;23.53;;;7.40;;
3523;SDS011;1776;53.330;11.498;2023-05-24T06:26:58;21.90;;;6.10;;
3523;SDS011;1776;53.330;11.498;2023-05-24T06:29:24;27.03;;;7.93;;
3523;SDS011;1776;53.330;11.498;2023-05-24T06:31:49;18.20;;;5.37;;
3523;SDS011;1776;53.330;11.498;2023-05-24T06:34:14;23.70;;;6.90;;
3523;SDS011;1776;53.330;11.498;2023-05-24T06:36:41;18.80;;;5.80;;
3523;SDS011;1776;53.330;11.498;2023-05-24T06:39:07;22.10;;;6.87;;
3523;SDS011;1776;53.330;11.498;2023-05-24T06:41:34;21.47;;;5.07;;
3523;SDS011;1776;53.330;11.498;2023-05-24T06:43:59;23.27;;;6.90;;
3523;SDS011;1776;53.330;11.498;2023-05-24T06:46:25;26.60;;;7.00;;
3523;SDS011;1776;53.330;11.498;2023-05-24T06:48:50;30.00;;;7.30;;
3523;SDS011;1776;53.330;11.498;2023-05-24T06:51:15;22.20;;;6.20;;
3523;SDS011;1776;53.330;11.498;2023-05-24T06:53:41;23.53;;;6.73;;
3523;SDS011;1776;53.330;11.498;2023-05-24T06:56:06;25.33;;;6.63;;
3523;SDS011;1776;53.330;11.498;2023-05-24T06:58:33;29.57;;;7.70;;
3523;SDS011;1776;53.330;11.498;2023-05-24T07:00:58;25.33;;;8.10;;
3523;SDS011;1776;53.330;11.498;2023-05-24T07:03:23;16.30;;;6.53;;
3523;SDS011;1776;53.330;11.498;2023-05-24T07:05:49;23.63;;;6.93;;
3523;SDS011;1776;53.330;11.498;2023-05-24T07:08:14;25.30;;;7.33;;
3523;SDS011;1776;53.330;11.498;2023-05-24T07:10:40;23.97;;;7.33;;
3523;SDS011;1776;53.330;11.498;2023-05-24T07:13:05;21.07;;;6.37;;
3523;SDS011;1776;53.330;11.498;2023-05-24T07:15:30;27.33;;;7.40;;
3523;SDS011;1776;53.330;11.498;2023-05-24T07:17:55;20.13;;;6.03;;
3523;SDS011;1776;53.330;11.498;2023-05-24T07:20:21;20.60;;;6.93;;
3523;SDS011;1776;53.330;11.498;2023-05-24T07:22:46;22.03;;;6.43;;
3523;SDS011;1776;53.330;11.498;2023-05-24T07:25:11;51.77;;;10.07;;
3523;SDS011;1776;53.330;11.498;2023-05-24T07:27:37;24.43;;;7.50;;
3523;SDS011;1776;53.330;11.498;2023-05-24T07:30:02;41.10;;;8.00;;
3523;SDS011;1776;53.330;11.498;2023-05-24T07:32:28;23.93;;;7.73;;
3523;SDS011;1776;53.330;11.498;2023-05-24T07:34:54;22.87;;;7.30;;
3523;SDS011;1776;53.330;11.498;2023-05-24T07:37:19;25.73;;;9.90;;
3523;SDS011;1776;53.330;11.498;2023-05-24T07:39:48;23.73;;;7.03;;
3523;SDS011;1776;53.330;11.498;2023-05-24T07:42:13;24.93;;;8.03;;
3523;SDS011;1776;53.330;11.498;2023-05-24T07:44:38;30.10;;;9.33;;
3523;SDS011;1776;53.330;11.498;2023-05-24T07:47:04;26.27;;;8.30;;
3523;SDS011;1776;53.330;11.498;2023-05-24T07:49:29;33.13;;;8.87;;
3523;SDS011;1776;53.330;11.498;2023-05-24T07:51:55;27.90;;;7.73;;
3523;SDS011;1776;53.330;11.498;2023-05-24T07:54:23;29.50;;;7.10;;
3523;SDS011;1776;53.330;11.498;2023-05-24T07:56:49;19.77;;;8.00;;
3523;SDS011;1776;53.330;11.498;2023-05-24T07:59:14;26.47;;;8.90;;
3523;SDS011;1776;53.330;11.498;2023-05-24T08:01:39;25.07;;;6.70;;
3523;SDS011;1776;53.330;11.498;2023-05-24T08:04:05;22.87;;;7.37;;
3523;SDS011;1776;53.330;11.498;2023-05-24T08:06:32;27.47;;;7.77;;
3523;SDS011;1776;53.330;11.498;2023-05-24T08:08:58;18.90;;;6.90;;
3523;SDS011;1776;53.330;11.498;2023-05-24T08:11:24;26.97;;;7.80;;
3523;SDS011;1776;53.330;11.498;2023-05-24T08:13:49;21.77;;;7.07;;
3523;SDS011;1776;53.330;11.498;2023-05-24T08:16:15;33.20;;;8.70;;
3523;SDS011;1776;53.330;11.498;2023-05-24T08:18:40;22.77;;;6.70;;
3523;SDS011;1776;53.330;11.498;2023-05-24T08:21:05;20.67;;;8.33;;
3523;SDS011;1776;53.330;11.498;2023-05-24T08:23:31;29.07;;;8.20;;
3523;SDS011;1776;53.330;11.498;2023-05-24T08:25:57;19.73;;;7.70;;
3523;SDS011;1776;53.330;11.498;2023-05-24T08:28:23;19.53;;;7.40;;
3523;SDS011;1776;53.330;11.498;2023-05-24T08:30:48;18.37;;;7.27;;
3523;SDS011;1776;53.330;11.498;2023-05-24T08:33:14;22.73;;;7.47;;
3523;SDS011;1776;53.330;11.498;2023-05-24T08:35:39;41.53;;;9.70;;
3523;SDS011;1776;53.330;11.498;2023-05-24T08:38:05;26.53;;;6.77;;
3523;SDS011;1776;53.330;11.498;2023-05-24T08:40:30;24.33;;;7.87;;
3523;SDS011;1776;53.330;11.498;2023-05-24T08:42:57;29.17;;;8.20;;
3523;SDS011;1776;53.330;11.498;2023-05-24T08:45:24;22.67;;;8.73;;
3523;SDS011;1776;53.330;11.498;2023-05-24T08:47:50;28.03;;;6.30;;
3523;SDS011;1776;53.330;11.498;2023-05-24T08:50:16;28.67;;;7.90;;
3523;SDS011;1776;53.330;11.498;2023-05-24T08:52:42;20.93;;;8.03;;
3523;SDS011;1776;53.330;11.498;2023-05-24T08:55:09;28.63;;;8.47;;
3523;SDS011;1776;53.330;11.498;2023-05-24T08:57:35;22.90;;;8.30;;
3523;SDS011;1776;53.330;11.498;2023-05-24T09:00:04;22.83;;;6.57;;
3523;SDS011;1776;53.330;11.498;2023-05-24T09:02:35;27.83;;;7.90;;
3523;SDS011;1776;53.330;11.498;2023-05-24T09:05:03;18.57;;;6.87;;
3523;SDS011;1776;53.330;11.498;2023-05-24T09:07:30;23.13;;;6.70;;
3523;SDS011;1776;53.330;11.498;2023-05-24T09:09:56;26.07;;;7.80;;
3523;SDS011;1776;53.330;11.498;2023-05-24T09:12:25;30.03;;;8.83;;
3523;SDS011;1776;53.330;11.498;2023-05-24T09:14:51;27.43;;;8.27;;
3523;SDS011;1776;53.330;11.498;2023-05-24T09:17:17;25.07;;;7.70;;
3523;SDS011;1776;53.330;11.498;2023-05-24T09:19:44;23.40;;;7.67;;
3523;SDS011;1776;53.330;11.498;2023-05-24T09:22:13;27.27;;;7.27;;
3523;SDS011;1776;53.330;11.498;2023-05-24T09:24:40;25.23;;;6.70;;
3523;SDS011;1776;53.330;11.498;2023-05-24T09:27:06;24.73;;;8.10;;
3523;SDS011;1776;53.330;11.498;2023-05-24T09:29:34;22.97;;;8.10;;
3523;SDS011;1776;53.330;11.498;2023-05-24T09:32:00;29.10;;;8.03;;
3523;SDS011;1776;53.330;11.498;2023-05-24T09:34:28;14.03;;;7.17;;
3523;SDS011;1776;53.330;11.498;2023-05-24T09:36:53;17.27;;;7.17;;
3523;SDS011;1776;53.330;11.498;2023-05-24T09:39:19;15.77;;;5.77;;
3523;SDS011;1776;53.330;11.498;2023-05-24T09:41:53;17.47;;;6.47;;
3523;SDS011;1776;53.330;11.498;2023-05-24T09:44:24;14.00;;;6.20;;
3523;SDS011;1776;53.330;11.498;2023-05-24T09:46:53;17.90;;;5.60;;
3523;SDS011;1776;53.330;11.498;2023-05-24T09:49:25;14.27;;;4.43;;
3523;SDS011;1776;53.330;11.498;2023-05-24T09:51:50;15.87;;;5.00;;
3523;SDS011;1776;53.330;11.498;2023-05-24T09:54:16;12.47;;;4.60;;
3523;SDS011;1776;53.330;11.498;2023-05-24T09:56:42;20.73;;;6.50;;
3523;SDS011;1776;53.330;11.498;2023-05-24T09:59:10;16.97;;;5.20;;
3523;SDS011;1776;53.330;11.498;2023-05-24T10:01:35;16.00;;;5.40;;
3523;SDS011;1776;53.330;11.498;2023-05-24T10:04:01;16.30;;;6.03;;
3523;SDS011;1776;53.330;11.498;2023-05-24T10:06:30;10.80;;;5.80;;
3523;SDS011;1776;53.330;11.498;2023-05-24T10:09:00;26.43;;;6.47;;
3523;SDS011;1776;53.330;11.498;2023-05-24T10:11:29;19.53;;;6.07;;
3523;SDS011;1776;53.330;11.498;2023-05-24T10:13:54;16.20;;;5.10;;
3523;SDS011;1776;53.330;11.498;2023-05-24T10:16:19;18.23;;;8.23;;
3523;SDS011;1776;53.330;11.498;2023-05-24T10:18:45;18.30;;;5.90;;
3523;SDS011;1776;53.330;11.498;2023-05-24T10:21:10;10.93;;;5.23;;
3523;SDS011;1776;53.330;11.498;2023-05-24T10:23:37;10.80;;;4.40;;
3523;SDS011;1776;53.330;11.498;2023-05-24T10:26:08;9.80;;;3.57;;
3523;SDS011;1776;53.330;11.498;2023-05-24T10:28:39;17.80;;;4.63;;
3523;SDS011;1776;53.330;11.498;2023-05-24T10:31:10;15.70;;;4.80;;
3523;SDS011;1776;53.330;11.498;2023-05-24T10:33:42;9.03;;;4.17;;
3523;SDS011;1776;53.330;11.498;2023-05-24T10:36:09;12.57;;;4.10;;
3523;SDS011;1776;53.330;11.498;2023-05-24T10:38:37;10.17;;;3.70;;
3523;SDS011;1776;53.330;11.498;2023-05-24T10:41:04;11.13;;;4.60;;
3523;SDS011;1776;53.330;11.498;2023-05-24T10:43:32;6.70;;;3.67;;
3523;SDS011;1776;53.330;11.498;2023-05-24T10:45:59;11.57;;;4.53;;
3523;SDS011;1776;53.330;11.498;2023-05-24T10:50:52;10.80;;;4.43;;
3523;SDS011;1776;53.330;11.498;2023-05-24T10:53:18;8.07;;;4.13;;
3523;SDS011;1776;53.330;11.498;2023-05-24T11:01:26;13.63;;;5.87;;
3523;SDS011;1776;53.330;11.498;2023-05-24T11:04:09;10.93;;;4.20;;
3523;SDS011;1776;53.330;11.498;2023-05-24T11:06:48;15.70;;;5.10;;
3523;SDS011;1776;53.330;11.498;2023-05-24T11:09:21;12.80;;;5.20;;
3523;SDS011;1776;53.330;11.498;2023-05-24T11:11:47;13.80;;;4.60;;
3523;SDS011;1776;53.330;11.498;2023-05-24T11:14:17;14.70;;;4.90;;
3523;SDS011;1776;53.330;11.498;2023-05-24T11:16:44;12.60;;;5.57;;
3523;SDS011;1776;53.330;11.498;2023-05-24T11:19:11;21.20;;;6.93;;
3523;SDS011;1776;53.330;11.498;2023-05-24T11:21:47;13.90;;;5.37;;
3523;SDS011;1776;53.330;11.498;2023-05-24T11:24:17;27.40;;;6.60;;
3523;SDS011;1776;53.330;11.498;2023-05-24T11:26:44;7.13;;;4.70;;
3523;SDS011;1776;53.330;11.498;2023-05-24T11:29:13;10.50;;;4.70;;
3523;SDS011;1776;53.330;11.498;2023-05-24T11:31:54;12.70;;;4.27;;
3523;SDS011;1776;53.330;11.498;2023-05-24T11:34:31;17.70;;;4.90;;
3523;SDS011;1776;53.330;11.498;2023-05-24T11:36:57;16.90;;;4.87;;
3523;SDS011;1776;53.330;11.498;2023-05-24T11:39:27;13.73;;;4.40;;
3523;SDS011;1776;53.330;11.498;2023-05-24T11:41:54;16.13;;;5.10;;
3523;SDS011;1776;53.330;11.498;2023-05-24T11:44:20;16.67;;;5.80;;
3523;SDS011;1776;53.330;11.498;2023-05-24T11:46:46;15.20;;;5.23;;
3523;SDS011;1776;53.330;11.498;2023-05-24T11:49:12;18.37;;;5.83;;
3523;SDS011;1776;53.330;11.498;2023-05-24T11:51:39;10.33;;;5.17;;
3523;SDS011;1776;53.330;11.498;2023-05-24T11:54:04;15.90;;;6.77;;
3523;SDS011;1776;53.330;11.498;2023-05-24T11:56:30;17.53;;;5.97;;
3523;SDS011;1776;53.330;11.498;2023-05-24T12:01:33;13.27;;;5.30;;
3523;SDS011;1776;53.330;11.498;2023-05-24T12:03:58;8.23;;;4.17;;
3523;SDS011;1776;53.330;11.498;2023-05-24T12:06:23;12.20;;;4.90;;
3523;SDS011;1776;53.330;11.498;2023-05-24T12:08:58;13.60;;;4.53;;
3523;SDS011;1776;53.330;11.498;2023-05-24T12:11:23;11.03;;;4.30;;
3523;SDS011;1776;53.330;11.498;2023-05-24T12:13:49;8.80;;;4.30;;
3523;SDS011;1776;53.330;11.498;2023-05-24T12:16:14;13.90;;;4.60;;
3523;SDS011;1776;53.330;11.498;2023-05-24T12:18:40;6.97;;;4.17;;
3523;SDS011;1776;53.330;11.498;2023-05-24T12:21:07;12.33;;;3.97;;
3523;SDS011;1776;53.330;11.498;2023-05-24T12:23:33;12.40;;;4.33;;
3523;SDS011;1776;53.330;11.498;2023-05-24T12:25:59;15.53;;;4.43;;
3523;SDS011;1776;53.330;11.498;2023-05-24T12:28:25;9.20;;;3.70;;
3523;SDS011;1776;53.330;11.498;2023-05-24T12:30:52;15.97;;;4.60;;
3523;SDS011;1776;53.330;11.498;2023-05-24T12:33:18;13.13;;;4.77;;
3523;SDS011;1776;53.330;11.498;2023-05-24T12:35:43;13.03;;;4.33;;
3523;SDS011;1776;53.330;11.498;2023-05-24T12:38:10;8.70;;;4.23;;
3523;SDS011;1776;53.330;11.498;2023-05-24T12:40:36;10.83;;;3.10;;
3523;SDS011;1776;53.330;11.498;2023-05-24T12:43:02;13.57;;;3.73;;
3523;SDS011;1776;53.330;11.498;2023-05-24T12:45:29;13.77;;;5.30;;
3523;SDS011;1776;53.330;11.498;2023-05-24T12:47:55;9.77;;;3.60;;
3523;SDS011;1776;53.330;11.498;2023-05-24T12:50:22;10.53;;;4.70;;
3523;SDS011;1776;53.330;11.498;2023-05-24T12:52:48;12.60;;;4.40;;
3523;SDS011;1776;53.330;11.498;2023-05-24T12:55:17;9.07;;;3.50;;
3523;SDS011;1776;53.330;11.498;2023-05-24T12:57:42;14.03;;;4.80;;
3523;SDS011;1776;53.330;11.498;2023-05-24T13:00:09;6.87;;;4.57;;
3523;SDS011;1776;53.330;11.498;2023-05-24T13:02:38;8.47;;;3.50;;
3523;SDS011;1776;53.330;11.498;2023-05-24T13:05:05;6.77;;;3.00;;
3523;SDS011;1776;53.330;11.498;2023-05-24T13:07:31;6.47;;;3.10;;
3523;SDS011;1776;53.330;11.498;2023-05-24T13:09:56;8.80;;;3.40;;
3523;SDS011;1776;53.330;11.498;2023-05-24T13:12:22;12.20;;;3.77;;
3523;SDS011;1776;53.330;11.498;2023-05-24T13:14:48;12.10;;;4.20;;
3523;SDS011;1776;53.330;11.498;2023-05-24T13:17:13;5.70;;;2.63;;
3523;SDS011;1776;53.330;11.498;2023-05-24T13:19:40;8.47;;;3.47;;
3523;SDS011;1776;53.330;11.498;2023-05-24T13:22:05;6.90;;;3.80;;
3523;SDS011;1776;53.330;11.498;2023-05-24T13:24:30;17.80;;;4.17;;
3523;SDS011;1776;53.330;11.498;2023-05-24T13:26:55;11.40;;;3.97;;
3523;SDS011;1776;53.330;11.498;2023-05-24T13:29:21;12.30;;;4.07;;
3523;SDS011;1776;53.330;11.498;2023-05-24T13:31:47;10.90;;;3.70;;
3523;SDS011;1776;53.330;11.498;2023-05-24T13:34:12;9.10;;;4.80;;
3523;SDS011;1776;53.330;11.498;2023-05-24T13:36:37;10.60;;;3.73;;
3523;SDS011;1776;53.330;11.498;2023-05-24T13:39:03;8.40;;;4.40;;
3523;SDS011;1776;53.330;11.498;2023-05-24T13:41:28;7.73;;;3.57;;
3523;SDS011;1776;53.330;11.498;2023-05-24T13:43:54;9.70;;;3.50;;
3523;SDS011;1776;53.330;11.498;2023-05-24T13:46:19;16.37;;;4.23;;
3523;SDS011;1776;53.330;11.498;2023-05-24T13:48:45;8.27;;;4.00;;
3523;SDS011;1776;53.330;11.498;2023-05-24T13:51:11;8.90;;;3.57;;
3523;SDS011;1776;53.330;11.498;2023-05-24T13:53:36;10.63;;;3.13;;
3523;SDS011;1776;53.330;11.498;2023-05-24T13:56:01;8.13;;;4.10;;
3523;SDS011;1776;53.330;11.498;2023-05-24T13:58:27;5.93;;;3.70;;
3523;SDS011;1776;53.330;11.498;2023-05-24T14:00:52;7.50;;;3.63;;
3523;SDS011;1776;53.330;11.498;2023-05-24T14:03:18;6.60;;;2.90;;
3523;SDS011;1776;53.330;11.498;2023-05-24T14:05:43;9.63;;;3.00;;
3523;SDS011;1776;53.330;11.498;2023-05-24T14:08:08;10.80;;;3.67;;
3523;SDS011;1776;53.330;11.498;2023-05-24T14:10:34;11.80;;;3.53;;
3523;SDS011;1776;53.330;11.498;2023-05-24T14:13:01;8.73;;;3.53;;
3523;SDS011;1776;53.330;11.498;2023-05-24T14:15:27;6.13;;;3.53;;
3523;SDS011;1776;53.330;11.498;2023-05-24T14:17:54;7.90;;;3.53;;
3523;SDS011;1776;53.330;11.498;2023-05-24T14:20:20;10.10;;;3.63;;
3523;SDS011;1776;53.330;11.498;2023-05-24T14:22:45;11.73;;;4.67;;
3523;SDS011;1776;53.330;11.498;2023-05-24T14:25:10;10.03;;;3.20;;
3523;SDS011;1776;53.330;11.498;2023-05-24T14:27:36;9.80;;;3.90;;
3523;SDS011;1776;53.330;11.498;2023-05-24T14:30:01;7.03;;;3.60;;
3523;SDS011;1776;53.330;11.498;2023-05-24T14:32:26;9.80;;;4.40;;
3523;SDS011;1776;53.330;11.498;2023-05-24T14:34:51;5.60;;;3.50;;
3523;SDS011;1776;53.330;11.498;2023-05-24T14:37:17;10.77;;;4.57;;
3523;SDS011;1776;53.330;11.498;2023-05-24T14:39:42;7.60;;;3.77;;
3523;SDS011;1776;53.330;11.498;2023-05-24T14:42:08;8.50;;;3.70;;
3523;SDS011;1776;53.330;11.498;2023-05-24T14:44:33;8.60;;;3.10;;
3523;SDS011;1776;53.330;11.498;2023-05-24T14:46:58;4.87;;;3.33;;
3523;SDS011;1776;53.330;11.498;2023-05-24T14:49:24;8.67;;;3.20;;
3523;SDS011;1776;53.330;11.498;2023-05-24T14:51:49;5.57;;;3.10;;
3523;SDS011;1776;53.330;11.498;2023-05-24T14:54:14;6.03;;;3.60;;
3523;SDS011;1776;53.330;11.498;2023-05-24T14:56:40;8.70;;;3.67;;
3523;SDS011;1776;53.330;11.498;2023-05-24T14:59:05;4.20;;;2.93;;
3523;SDS011;1776;53.330;11.498;2023-05-24T15:01:31;8.90;;;2.97;;
3523;SDS011;1776;53.330;11.498;2023-05-24T15:03:56;6.13;;;3.27;;
3523;SDS011;1776;53.330;11.498;2023-05-24T15:06:21;9.50;;;3.67;;
3523;SDS011;1776;53.330;11.498;2023-05-24T15:08:46;7.70;;;3.07;;
3523;SDS011;1776;53.330;11.498;2023-05-24T15:11:12;7.90;;;3.53;;